createdAt,value
2018-03-01T00:02:13.467Z,24.30
2018-03-01T00:04:39.655Z,24.50
2018-03-01T00:07:05.909Z,24.50
2018-03-01T00:09:32.096Z,24.50
2018-03-01T00:11:58.272Z,24.50
2018-03-01T00:14:24.542Z,24.30
2018-03-01T00:16:50.710Z,24.30
2018-03-01T00:19:16.915Z,24.80
2018-03-01T00:21:44.146Z,24.40
2018-03-01T00:24:10.315Z,24.20
2018-03-01T00:26:36.495Z,24.30
2018-03-01T00:29:02.749Z,24.40
2018-03-01T00:31:28.932Z,24.30
2018-03-01T00:33:55.096Z,24.40
2018-03-01T00:36:22.099Z,24.30
2018-03-01T00:38:48.255Z,24.20
2018-03-01T00:41:14.448Z,24.40
2018-03-01T00:43:41.436Z,24.50
2018-03-01T00:46:07.692Z,24.50
2018-03-01T00:48:33.900Z,24.50
2018-03-01T00:51:00.104Z,24.40
2018-03-01T00:53:27.293Z,24.30
2018-03-01T00:55:53.451Z,24.30
2018-03-01T00:58:19.644Z,24.20
2018-03-01T01:00:45.939Z,24.30
2018-03-01T01:03:12.117Z,24.20
2018-03-01T01:05:38.287Z,24.20
2018-03-01T01:08:05.219Z,24.30
2018-03-01T01:10:31.477Z,24.20
2018-03-01T01:12:58.403Z,24.10
2018-03-01T01:15:24.572Z,24.10
2018-03-01T01:17:51.556Z,24.70
2018-03-01T01:20:17.744Z,24.30
2018-03-01T01:22:43.905Z,23.90
2018-03-01T01:25:10.892Z,24.10
2018-03-01T01:27:37.211Z,24.00
2018-03-01T01:30:03.416Z,24.20
2018-03-01T01:32:29.587Z,24.10
2018-03-01T01:34:56.550Z,24.10
2018-03-01T01:37:22.713Z,24.10
2018-03-01T01:39:48.897Z,24.10
2018-03-01T01:42:15.276Z,24.20
2018-03-01T01:44:42.301Z,24.10
2018-03-01T01:47:08.472Z,24.00
2018-03-01T01:49:34.632Z,24.30
2018-03-01T01:52:01.100Z,24.00
2018-03-01T01:54:27.275Z,24.10
2018-03-01T01:56:54.445Z,24.10
2018-03-01T01:59:20.705Z,24.30
2018-03-01T02:01:47.698Z,24.30
2018-03-01T02:04:13.863Z,24.20
2018-03-01T02:06:40.074Z,24.20
2018-03-01T02:09:06.373Z,24.20
2018-03-01T02:11:33.328Z,24.50
2018-03-01T02:13:59.497Z,24.50
2018-03-01T02:16:25.925Z,24.20
2018-03-01T02:18:52.880Z,24.20
2018-03-01T02:21:19.096Z,24.20
2018-03-01T02:23:45.296Z,24.40
2018-03-01T02:26:11.481Z,24.40
2018-03-01T02:28:37.684Z,24.40
2018-03-01T02:31:03.865Z,24.30
2018-03-01T02:33:30.168Z,24.50
2018-03-01T02:35:56.409Z,24.40
2018-03-01T02:38:22.640Z,24.50
2018-03-01T02:40:48.870Z,25.20
2018-03-01T02:43:15.059Z,24.50
2018-03-01T02:45:41.252Z,24.50
2018-03-01T02:48:08.240Z,24.70
2018-03-01T02:50:34.441Z,24.60
2018-03-01T02:53:01.352Z,24.60
2018-03-01T02:55:27.549Z,25.10
2018-03-01T02:57:53.722Z,24.50
2018-03-01T03:00:19.917Z,24.60
2018-03-01T03:02:46.844Z,24.70
2018-03-01T03:05:13.244Z,24.70
2018-03-01T03:07:39.416Z,24.70
2018-03-01T03:10:05.609Z,25.00
2018-03-01T03:12:31.899Z,24.90
2018-03-01T03:14:58.104Z,25.00
2018-03-01T03:17:24.261Z,24.90
2018-03-01T03:19:50.480Z,25.00
2018-03-01T03:22:16.668Z,25.00
2018-03-01T03:24:42.832Z,25.00
2018-03-01T03:27:09.908Z,25.50
2018-03-01T03:29:37.000Z,25.10
2018-03-01T03:32:03.181Z,25.10
2018-03-01T03:34:29.381Z,25.30
2018-03-01T03:36:56.023Z,25.20
2018-03-01T03:39:22.292Z,25.40
2018-03-01T03:41:48.494Z,25.30
2018-03-01T03:44:14.727Z,25.50
2018-03-01T03:46:41.628Z,25.70
2018-03-01T03:49:07.836Z,25.70
2018-03-01T03:51:34.100Z,25.50
2018-03-01T03:54:01.116Z,25.70
2018-03-01T03:56:28.888Z,25.70
2018-03-01T03:58:55.836Z,25.60
2018-03-01T04:01:22.008Z,25.60
2018-03-01T04:03:48.325Z,26.30
2018-03-01T04:06:15.953Z,25.70
2018-03-01T04:08:42.143Z,25.70
2018-03-01T04:11:08.423Z,25.60
2018-03-01T04:13:35.472Z,25.60
2018-03-01T04:16:01.657Z,25.60
2018-03-01T04:18:27.867Z,25.60
2018-03-01T04:20:54.212Z,25.60
2018-03-01T04:23:20.381Z,25.50
2018-03-01T04:25:46.589Z,25.60
2018-03-01T04:28:12.892Z,25.50
2018-03-01T04:30:39.820Z,25.40
2018-03-01T04:33:05.994Z,25.40
2018-03-01T04:35:32.936Z,25.60
2018-03-01T04:37:59.135Z,25.60
2018-03-01T04:40:25.337Z,25.40
2018-03-01T04:42:51.512Z,25.50
2018-03-01T04:45:17.708Z,25.50
2018-03-01T04:47:43.888Z,25.50
2018-03-01T04:50:10.098Z,25.50
2018-03-01T04:52:36.377Z,25.60
2018-03-01T04:55:02.628Z,25.60
2018-03-01T04:57:28.808Z,25.60
2018-03-01T04:59:54.974Z,25.60
2018-03-01T05:02:21.156Z,25.60
2018-03-01T05:04:47.341Z,25.60
2018-03-01T05:07:13.861Z,25.70
2018-03-01T05:09:40.024Z,25.60
2018-03-01T05:12:06.968Z,25.60
2018-03-01T05:14:33.510Z,25.60
2018-03-01T05:16:59.696Z,25.60
2018-03-01T05:19:25.891Z,25.80
2018-03-01T05:21:53.018Z,25.80
2018-03-01T05:24:19.336Z,25.80
2018-03-01T05:26:45.548Z,26.50
2018-03-01T05:29:12.456Z,26.00
2018-03-01T05:31:38.708Z,26.00
2018-03-01T05:34:04.887Z,25.90
2018-03-01T05:36:31.059Z,25.90
2018-03-01T05:38:57.260Z,25.80
2018-03-01T05:41:23.444Z,25.80
2018-03-01T05:43:49.641Z,25.70
2018-03-01T05:46:15.901Z,25.80
2018-03-01T05:48:42.998Z,25.80
2018-03-01T05:51:09.192Z,25.70
2018-03-01T05:53:36.116Z,25.70
2018-03-01T05:56:02.395Z,25.60
2018-03-01T05:58:29.332Z,25.80
2018-03-01T06:00:55.570Z,25.80
2018-03-01T06:03:21.742Z,25.60
2018-03-01T06:05:48.832Z,25.70
2018-03-01T06:08:15.005Z,25.70
2018-03-01T06:10:41.198Z,25.70
2018-03-01T06:13:07.505Z,25.60
2018-03-01T06:15:33.761Z,25.70
2018-03-01T06:17:59.905Z,25.70
2018-03-01T06:20:26.940Z,26.30
2018-03-01T06:22:53.185Z,25.70
2018-03-01T06:25:19.364Z,25.30
2018-03-01T06:27:45.843Z,25.50
2018-03-01T06:30:12.007Z,25.70
2018-03-01T06:32:38.193Z,25.60
2018-03-01T06:35:05.472Z,25.50
2018-03-01T06:37:31.898Z,25.20
2018-03-01T06:39:58.068Z,25.30
2018-03-01T06:42:24.252Z,25.90
2018-03-01T06:44:51.331Z,25.20
2018-03-01T06:47:17.504Z,25.10
2018-03-01T06:49:43.713Z,25.10
2018-03-01T06:52:09.948Z,25.10
2018-03-01T06:54:36.152Z,25.20
2018-03-01T06:57:02.352Z,26.10
2018-03-01T06:59:28.573Z,25.30
2018-03-01T07:01:54.764Z,24.80
2018-03-01T07:04:20.960Z,24.10
2018-03-01T07:06:47.190Z,24.00
2018-03-01T07:09:14.289Z,24.10
2018-03-01T07:11:40.513Z,24.10
2018-03-01T07:14:06.709Z,23.70
2018-03-01T07:16:33.961Z,23.10
2018-03-01T07:19:00.219Z,23.30
2018-03-01T07:21:26.400Z,23.40
2018-03-01T07:23:52.734Z,23.40
2018-03-01T07:26:18.936Z,23.50
2018-03-01T07:28:45.103Z,23.80
2018-03-01T07:31:11.299Z,23.40
2018-03-01T07:33:37.596Z,23.10
2018-03-01T07:36:04.599Z,23.10
2018-03-01T07:38:30.792Z,23.10
2018-03-01T07:40:57.431Z,23.10
2018-03-01T07:43:23.630Z,23.00
2018-03-01T07:45:49.797Z,23.00
2018-03-01T07:48:16.721Z,22.90
2018-03-01T07:50:42.901Z,22.90
2018-03-01T07:53:09.117Z,22.80
2018-03-01T07:55:35.298Z,22.50
2018-03-01T07:58:01.532Z,22.20
2018-03-01T08:00:27.709Z,22.20
2018-03-01T08:02:53.876Z,22.10
2018-03-01T08:05:20.052Z,22.10
2018-03-01T08:07:46.232Z,22.10
2018-03-01T08:10:12.437Z,21.90
2018-03-01T08:12:38.685Z,21.90
2018-03-01T08:15:04.929Z,21.80
2018-03-01T08:17:31.115Z,21.80
2018-03-01T08:19:57.424Z,21.40
2018-03-01T08:22:23.595Z,21.40
2018-03-01T08:24:49.784Z,21.40
2018-03-01T08:27:16.050Z,21.30
2018-03-01T08:29:42.244Z,21.20
2018-03-01T08:32:09.156Z,21.20
2018-03-01T08:34:35.574Z,21.10
2018-03-01T08:37:01.772Z,20.80
2018-03-01T08:39:27.972Z,20.60
2018-03-01T08:41:54.267Z,20.50
2018-03-01T08:44:20.460Z,20.60
2018-03-01T08:46:46.700Z,20.60
2018-03-01T08:49:13.016Z,20.20
2018-03-01T08:51:39.210Z,20.60
2018-03-01T08:54:05.388Z,20.00
2018-03-01T08:56:32.496Z,19.70
2018-03-01T08:58:58.898Z,19.90
2018-03-01T09:01:25.107Z,19.80
2018-03-01T09:03:52.034Z,19.70
2018-03-01T09:06:18.422Z,19.70
2018-03-01T09:08:44.599Z,19.40
2018-03-01T09:11:10.795Z,19.40
2018-03-01T09:13:37.159Z,19.60
2018-03-01T09:16:04.179Z,19.40
2018-03-01T09:18:30.397Z,19.40
2018-03-01T09:20:56.592Z,19.00
2018-03-01T09:23:23.595Z,18.80
2018-03-01T09:25:50.813Z,18.80
2018-03-01T09:28:17.724Z,18.90
2018-03-01T09:30:43.914Z,18.90
2018-03-01T09:33:11.772Z,18.60
2018-03-01T09:35:37.985Z,18.50
2018-03-01T09:38:04.160Z,18.40
2018-03-01T09:40:30.483Z,18.60
2018-03-01T09:42:56.650Z,18.60
2018-03-01T09:45:22.926Z,18.40
2018-03-01T09:47:49.120Z,18.20
2018-03-01T09:50:15.299Z,18.20
2018-03-01T09:52:41.476Z,18.20
2018-03-01T09:55:07.696Z,18.40
2018-03-01T09:57:33.859Z,18.80
2018-03-01T10:00:00.061Z,18.10
2018-03-01T10:02:26.253Z,18.00
2018-03-01T10:04:52.446Z,18.10
2018-03-01T10:07:18.657Z,17.60
2018-03-01T10:09:45.555Z,17.60
2018-03-01T10:12:11.925Z,17.60
2018-03-01T10:14:38.099Z,17.60
2018-03-01T10:17:05.030Z,17.60
2018-03-01T10:19:31.344Z,17.60
2018-03-01T10:21:57.533Z,17.70
2018-03-01T10:24:23.696Z,17.70
2018-03-01T10:26:50.895Z,17.70
2018-03-01T10:29:18.200Z,17.80
2018-03-01T10:31:44.380Z,17.40
2018-03-01T10:34:10.546Z,17.40
2018-03-01T10:36:36.987Z,17.40
2018-03-01T10:39:03.220Z,17.50
2018-03-01T10:41:29.421Z,17.00
2018-03-01T10:43:55.710Z,16.70
2018-03-01T10:46:21.908Z,16.80
2018-03-01T10:48:48.085Z,16.70
2018-03-01T10:51:14.328Z,16.50
2018-03-01T10:53:41.621Z,16.20
2018-03-01T10:56:07.849Z,16.20
2018-03-01T10:58:34.027Z,16.10
2018-03-01T11:01:01.292Z,15.60
2018-03-01T11:03:28.209Z,15.70
2018-03-01T11:05:54.402Z,15.70
2018-03-01T11:08:20.580Z,15.30
2018-03-01T11:10:46.939Z,15.50
2018-03-01T11:13:13.140Z,15.50
2018-03-01T11:15:39.350Z,15.20
2018-03-01T11:18:06.375Z,14.50
2018-03-01T11:20:32.618Z,14.90
2018-03-01T11:22:58.816Z,14.80
2018-03-01T11:25:25.201Z,14.50
2018-03-01T11:27:51.367Z,14.60
2018-03-01T11:30:18.312Z,13.90
2018-03-01T11:32:44.477Z,14.30
2018-03-01T11:35:11.648Z,13.90
2018-03-01T11:37:38.575Z,13.60
2018-03-01T11:40:04.741Z,13.60
2018-03-01T11:42:31.676Z,13.70
2018-03-01T11:44:57.939Z,13.60
2018-03-01T11:47:24.128Z,13.20
2018-03-01T11:49:50.297Z,13.40
2018-03-01T11:52:16.788Z,13.10
2018-03-01T11:54:42.967Z,13.00
2018-03-01T11:57:09.186Z,12.90
2018-03-01T11:59:36.066Z,12.60
2018-03-01T12:02:02.278Z,11.70
2018-03-01T12:04:28.456Z,12.20
2018-03-01T12:06:54.808Z,12.00
2018-03-01T12:09:20.976Z,12.00
2018-03-01T12:11:47.165Z,12.30
2018-03-01T12:14:13.781Z,11.90
2018-03-01T12:16:40.102Z,11.50
2018-03-01T12:19:07.016Z,10.80
2018-03-01T12:21:33.463Z,10.90
2018-03-01T12:24:00.833Z,10.90
2018-03-01T12:26:27.182Z,10.60
2018-03-01T12:28:54.129Z,10.20
2018-03-01T12:31:20.344Z,10.20
2018-03-01T12:33:47.043Z,10.60
2018-03-01T12:36:13.436Z,10.30
2018-03-01T12:38:39.637Z,9.90
2018-03-01T12:41:05.830Z,10.00
2018-03-01T12:43:32.029Z,9.60
2018-03-01T12:45:58.477Z,9.40
2018-03-01T12:48:25.404Z,9.60
2018-03-01T12:50:51.689Z,9.60
2018-03-01T12:53:17.976Z,9.40
2018-03-01T12:55:44.188Z,9.30
2018-03-01T12:58:10.720Z,9.70
2018-03-01T13:00:37.087Z,9.30
2018-03-01T13:03:03.281Z,9.30
2018-03-01T13:05:30.516Z,8.90
2018-03-01T13:07:56.795Z,9.30
2018-03-01T13:10:23.728Z,9.00
2018-03-01T13:12:49.952Z,9.00
2018-03-01T13:15:16.392Z,9.80
2018-03-01T13:17:42.613Z,9.30
2018-03-01T13:20:08.800Z,9.30
2018-03-01T13:22:35.188Z,9.10
2018-03-01T13:25:01.396Z,9.10
2018-03-01T13:27:28.361Z,9.30
2018-03-01T13:29:55.295Z,9.50
2018-03-01T13:32:22.446Z,9.50
2018-03-01T13:34:54.615Z,9.20
2018-03-01T13:37:20.861Z,8.90
2018-03-01T13:39:47.389Z,8.60
2018-03-01T13:42:15.525Z,8.70
2018-03-01T13:44:41.908Z,9.10
2018-03-01T13:47:08.145Z,10.00
2018-03-01T13:49:34.426Z,9.60
2018-03-01T13:52:00.625Z,9.60
2018-03-01T13:54:26.829Z,9.50
2018-03-01T13:56:53.024Z,9.50
2018-03-01T13:59:19.217Z,9.70
2018-03-01T14:01:45.428Z,9.60
2018-03-01T14:04:11.958Z,9.50
2018-03-01T14:06:39.316Z,9.80
2018-03-01T14:09:05.537Z,9.40
2018-03-01T14:11:31.744Z,9.60
2018-03-01T14:13:59.203Z,9.40
2018-03-01T14:16:25.440Z,9.20
2018-03-01T14:19:06.566Z,9.50
2018-03-01T14:24:40.656Z,9.50
2018-03-01T14:27:12.881Z,9.70
2018-03-01T14:32:48.293Z,9.80
2018-03-01T14:35:14.488Z,9.80
2018-03-01T14:37:40.834Z,9.90
2018-03-01T14:40:07.028Z,9.90
2018-03-01T14:42:33.972Z,10.10
2018-03-01T14:45:00.185Z,10.10
2018-03-01T14:47:26.665Z,10.20
2018-03-01T14:49:52.856Z,10.90
2018-03-01T14:52:19.044Z,10.30
2018-03-01T14:54:45.486Z,10.40
2018-03-01T14:57:11.869Z,10.50
2018-03-01T14:59:38.050Z,10.60
2018-03-01T15:02:04.338Z,10.70
2018-03-01T15:04:30.523Z,10.70
2018-03-01T15:06:56.718Z,10.80
2018-03-01T15:09:22.997Z,11.20
2018-03-01T15:11:49.193Z,11.20
2018-03-01T15:14:16.130Z,11.10
2018-03-01T15:16:42.301Z,11.10
2018-03-01T15:19:08.595Z,11.10
2018-03-01T15:21:35.576Z,11.30
2018-03-01T15:24:01.791Z,11.30
2018-03-01T15:26:28.139Z,12.20
2018-03-01T15:28:55.104Z,11.70
2018-03-01T15:31:21.277Z,11.60
2018-03-01T15:33:47.749Z,11.60
2018-03-01T15:36:13.928Z,11.60
2018-03-01T15:38:40.180Z,11.80
2018-03-01T15:41:06.391Z,11.70
2018-03-01T15:43:32.584Z,12.00
2018-03-01T15:45:59.497Z,11.50
2018-03-01T15:48:25.709Z,11.50
2018-03-01T15:50:52.083Z,11.70
2018-03-01T15:53:18.468Z,12.10
2018-03-01T15:55:44.639Z,12.10
2018-03-01T15:58:11.252Z,12.10
2018-03-01T16:00:38.410Z,12.10
2018-03-01T16:03:04.593Z,12.10
2018-03-01T16:05:30.815Z,12.10
2018-03-01T16:07:58.059Z,12.50
2018-03-01T16:10:24.242Z,12.00
2018-03-01T16:12:51.152Z,12.00
2018-03-01T16:15:17.485Z,12.00
2018-03-01T16:17:43.715Z,12.00
2018-03-01T16:20:09.917Z,12.00
2018-03-01T16:22:36.105Z,12.00
2018-03-01T16:25:02.928Z,12.00
2018-03-01T16:27:29.859Z,11.90
2018-03-01T16:29:56.054Z,11.90
2018-03-01T16:32:22.515Z,12.00
2018-03-01T16:34:48.704Z,11.90
2018-03-01T16:37:14.906Z,12.30
2018-03-01T16:39:41.879Z,12.60
2018-03-01T16:42:09.579Z,12.60
2018-03-01T16:44:35.763Z,12.60
2018-03-01T16:47:01.956Z,12.70
2018-03-01T16:49:28.253Z,13.00
2018-03-01T16:51:54.428Z,12.90
2018-03-01T16:54:20.630Z,12.80
2018-03-01T16:56:46.999Z,12.70
2018-03-01T16:59:14.100Z,13.20
2018-03-01T17:01:40.275Z,13.20
2018-03-01T17:04:06.467Z,13.10
2018-03-01T17:06:32.865Z,13.10
2018-03-01T17:08:59.812Z,12.80
2018-03-01T17:11:26.176Z,12.80
2018-03-01T17:13:53.132Z,13.10
2018-03-01T17:16:20.221Z,15.20
2018-03-01T17:18:46.430Z,14.70
2018-03-01T17:21:13.414Z,12.90
2018-03-01T17:23:39.610Z,12.90
2018-03-01T17:26:05.961Z,13.10
2018-03-01T17:28:32.189Z,12.90
2018-03-01T17:30:58.356Z,12.80
2018-03-01T17:33:25.474Z,13.20
2018-03-01T17:35:51.668Z,13.10
2018-03-01T17:38:18.619Z,13.30
2018-03-01T17:40:46.514Z,13.40
2018-03-01T17:43:13.030Z,13.40
2018-03-01T17:45:39.237Z,13.30
2018-03-01T17:48:05.436Z,13.20
2018-03-01T17:50:31.767Z,13.40
2018-03-01T17:52:57.993Z,13.20
2018-03-01T17:55:24.177Z,13.50
2018-03-01T17:57:50.352Z,13.40
2018-03-01T18:00:17.187Z,13.40
2018-03-01T18:02:43.390Z,13.00
2018-03-01T18:05:10.343Z,14.00
2018-03-01T18:07:37.592Z,13.40
2018-03-01T18:10:04.043Z,13.30
2018-03-01T18:12:30.975Z,13.50
2018-03-01T18:14:57.186Z,13.50
2018-03-01T18:17:23.976Z,13.80
2018-03-01T18:19:50.487Z,13.80
2018-03-01T18:22:16.655Z,14.00
2018-03-01T18:24:43.053Z,13.90
2018-03-01T18:27:09.242Z,14.00
2018-03-01T18:29:35.449Z,14.00
2018-03-01T18:32:03.327Z,14.20
2018-03-01T18:34:29.693Z,14.10
2018-03-01T18:36:55.869Z,14.10
2018-03-01T18:39:22.062Z,14.10
2018-03-01T18:41:48.383Z,14.20
2018-03-01T18:44:15.908Z,14.10
2018-03-01T18:46:42.083Z,14.20
2018-03-01T18:49:09.057Z,14.50
2018-03-01T18:51:35.536Z,14.50
2018-03-01T18:54:01.728Z,14.30
2018-03-01T18:56:27.897Z,14.30
2018-03-01T18:58:54.221Z,14.30
2018-03-01T19:01:20.453Z,14.40
2018-03-01T19:03:47.409Z,14.60
2018-03-01T19:06:14.345Z,14.60
2018-03-01T19:08:40.652Z,14.60
2018-03-01T19:11:06.833Z,14.70
2018-03-01T19:13:33.016Z,14.70
2018-03-01T19:15:59.814Z,14.70
2018-03-01T19:18:26.628Z,14.90
2018-03-01T19:20:52.867Z,14.90
2018-03-01T19:23:19.053Z,15.00
2018-03-01T19:25:45.327Z,14.90
2018-03-01T19:28:12.233Z,15.10
2018-03-01T19:30:38.473Z,15.10
2018-03-01T19:33:05.800Z,14.80
2018-03-01T19:35:32.012Z,15.10
2018-03-01T19:37:58.218Z,15.20
2018-03-01T19:40:24.464Z,15.20
2018-03-01T19:42:50.663Z,15.10
2018-03-01T19:45:16.892Z,15.20
2018-03-01T19:47:43.804Z,15.10
2018-03-01T19:50:10.952Z,15.10
2018-03-01T19:52:37.138Z,15.20
2018-03-01T19:55:03.405Z,15.10
2018-03-01T19:57:29.814Z,15.40
2018-03-01T19:59:56.029Z,15.40
2018-03-01T20:02:22.258Z,15.30
2018-03-01T20:04:48.653Z,15.40
2018-03-01T20:07:14.908Z,15.40
2018-03-01T20:09:41.849Z,15.70
2018-03-01T20:12:08.054Z,15.70
2018-03-01T20:14:34.413Z,15.50
2018-03-01T20:17:00.619Z,15.70
2018-03-01T20:19:26.804Z,15.70
2018-03-01T20:21:53.293Z,15.60
2018-03-01T20:24:19.471Z,15.90
2018-03-01T20:26:45.683Z,15.70
2018-03-01T20:29:11.986Z,15.90
2018-03-01T20:31:38.187Z,16.00
2018-03-01T20:34:04.402Z,16.10
2018-03-01T20:36:30.848Z,15.90
2018-03-01T20:38:57.028Z,16.00
2018-03-01T20:41:23.247Z,15.80
2018-03-01T20:43:49.633Z,15.90
2018-03-01T20:46:15.847Z,15.80
2018-03-01T20:48:42.097Z,16.20
2018-03-01T20:51:08.311Z,16.20
2018-03-01T20:53:34.519Z,16.20
2018-03-01T20:56:00.711Z,16.20
2018-03-01T20:58:27.644Z,16.40
2018-03-01T21:00:54.787Z,16.40
2018-03-01T21:03:20.990Z,16.40
2018-03-01T21:05:47.168Z,16.60
2018-03-01T21:08:13.864Z,16.60
2018-03-01T21:10:40.048Z,16.80
2018-03-01T21:13:06.283Z,16.70
2018-03-01T21:15:32.500Z,17.00
2018-03-01T21:17:58.781Z,16.90
2018-03-01T21:20:25.019Z,16.90
2018-03-01T21:22:51.283Z,17.10
2018-03-01T21:25:17.516Z,17.20
2018-03-01T21:27:43.729Z,17.30
2018-03-01T21:30:10.686Z,17.20
2018-03-01T21:32:38.360Z,17.50
2018-03-01T21:35:05.403Z,17.50
2018-03-01T21:37:31.690Z,18.10
2018-03-01T21:39:58.180Z,17.80
2018-03-01T21:42:31.228Z,17.70
2018-03-01T21:44:57.445Z,17.70
2018-03-01T21:47:24.412Z,17.70
2018-03-01T21:49:50.657Z,17.70
2018-03-01T21:52:17.740Z,18.10
2018-03-01T21:54:43.948Z,18.20
2018-03-01T21:57:10.237Z,18.00
2018-03-01T21:59:36.618Z,18.00
2018-03-01T22:02:03.664Z,17.80
2018-03-01T22:04:29.901Z,17.80
2018-03-01T22:06:56.152Z,17.90
2018-03-01T22:09:22.447Z,17.80
2018-03-01T22:11:48.716Z,17.90
2018-03-01T22:14:14.960Z,18.10
2018-03-01T22:16:41.256Z,18.10
2018-03-01T22:19:07.495Z,18.10
2018-03-01T22:21:34.457Z,18.10
2018-03-01T22:24:00.976Z,18.00
2018-03-01T22:26:27.289Z,18.10
2018-03-01T22:28:53.512Z,18.40
2018-03-01T22:31:19.824Z,18.40
2018-03-01T22:33:46.785Z,18.40
2018-03-01T22:36:13.772Z,18.40
2018-03-01T22:38:40.188Z,18.40
2018-03-01T22:41:07.384Z,18.40
2018-03-01T22:43:33.624Z,18.40
2018-03-01T22:45:59.832Z,18.40
2018-03-01T22:48:26.761Z,18.40
2018-03-01T22:50:53.248Z,18.40
2018-03-01T22:53:19.596Z,18.40
2018-03-01T22:55:45.819Z,18.40
2018-03-01T22:58:12.953Z,18.30
2018-03-01T23:00:53.589Z,18.30
2018-03-01T23:03:19.793Z,18.30
2018-03-01T23:05:46.032Z,18.30
2018-03-01T23:08:14.070Z,18.30
2018-03-01T23:10:40.383Z,18.30
2018-03-01T23:13:07.353Z,18.30
2018-03-01T23:15:33.585Z,18.30
2018-03-01T23:18:00.017Z,18.30
2018-03-01T23:20:26.272Z,18.30
2018-03-01T23:22:52.425Z,18.80
2018-03-01T23:25:18.942Z,18.20
2018-03-01T23:27:45.868Z,19.20
2018-03-01T23:30:12.075Z,18.60
2018-03-01T23:32:38.350Z,18.40
2018-03-01T23:35:04.564Z,18.70
2018-03-01T23:37:30.769Z,18.70
2018-03-01T23:39:57.727Z,18.80
2018-03-01T23:42:24.774Z,18.90
2018-03-01T23:44:50.975Z,18.90
2018-03-01T23:47:17.158Z,19.10
2018-03-01T23:49:44.127Z,19.20
2018-03-01T23:52:10.362Z,19.20
2018-03-01T23:54:36.638Z,19.30
2018-03-01T23:57:02.857Z,19.40
2018-03-01T23:59:29.097Z,19.20
